createdAt,value
2019-06-04T00:02:32.344Z,99.90
2019-06-04T00:05:02.879Z,99.90
2019-06-04T00:07:32.585Z,99.90
2019-06-04T00:10:02.297Z,99.90
2019-06-04T00:12:32.047Z,99.90
2019-06-04T00:15:02.471Z,99.90
2019-06-04T00:17:32.564Z,99.90
2019-06-04T00:20:03.397Z,99.90
2019-06-04T00:22:33.463Z,99.90
2019-06-04T00:25:03.250Z,99.90
2019-06-04T00:27:32.940Z,99.90
2019-06-04T00:30:02.741Z,99.90
2019-06-04T00:32:32.469Z,99.90
2019-06-04T00:35:02.424Z,99.90
2019-06-04T00:37:32.309Z,99.90
2019-06-04T00:40:02.800Z,99.90
2019-06-04T00:42:32.766Z,99.90
2019-06-04T00:45:03.174Z,99.90
2019-06-04T00:47:33.299Z,99.90
2019-06-04T00:50:03.556Z,99.90
2019-06-04T00:52:33.301Z,99.90
2019-06-04T00:55:21.943Z,99.90
2019-06-04T00:57:51.723Z,99.90
2019-06-04T01:00:21.457Z,99.90
2019-06-04T01:02:51.203Z,99.90
2019-06-04T01:05:21.074Z,99.90
2019-06-04T01:07:50.831Z,99.90
2019-06-04T01:10:20.650Z,99.90
2019-06-04T01:12:50.411Z,99.90
2019-06-04T01:15:25.486Z,99.90
2019-06-04T01:17:51.642Z,99.90
2019-06-04T01:20:41.581Z,99.90
2019-06-04T01:23:11.630Z,99.90
2019-06-04T01:25:41.428Z,99.90
2019-06-04T01:28:11.164Z,99.90
2019-06-04T01:30:41.013Z,99.90
2019-06-04T01:33:10.829Z,99.90
2019-06-04T01:35:40.670Z,99.90
2019-06-04T01:38:10.835Z,99.90
2019-06-04T01:40:40.740Z,99.90
2019-06-04T01:43:11.494Z,99.90
2019-06-04T01:45:41.392Z,99.90
2019-06-04T01:48:12.775Z,99.90
2019-06-04T01:50:42.916Z,99.90
2019-06-04T01:53:12.809Z,99.90
2019-06-04T01:55:42.564Z,99.90
2019-06-04T01:58:14.315Z,99.90
2019-06-04T02:00:43.771Z,99.90
2019-06-04T02:03:14.007Z,99.90
2019-06-04T02:05:44.278Z,99.90
2019-06-04T02:08:15.680Z,99.90
2019-06-04T02:10:45.382Z,99.90
2019-06-04T02:13:15.063Z,99.90
2019-06-04T02:15:44.768Z,99.90
2019-06-04T02:18:14.767Z,99.90
2019-06-04T02:20:44.821Z,99.90
2019-06-04T02:23:14.593Z,99.90
2019-06-04T02:25:44.328Z,99.90
2019-06-04T02:28:15.298Z,99.90
2019-06-04T02:30:45.212Z,99.90
2019-06-04T02:33:20.621Z,99.90
2019-06-04T02:35:46.371Z,99.90
2019-06-04T02:38:17.291Z,99.90
2019-06-04T02:40:49.860Z,99.90
2019-06-04T02:43:19.787Z,99.90
2019-06-04T02:45:51.252Z,99.90
2019-06-04T02:48:25.196Z,99.90
2019-06-04T02:50:57.328Z,99.90
2019-06-04T02:53:27.252Z,99.90
2019-06-04T02:55:57.108Z,99.90
2019-06-04T02:58:27.067Z,99.90
2019-06-04T03:01:02.725Z,99.90
2019-06-04T03:03:36.353Z,99.90
2019-06-04T03:06:08.958Z,99.90
2019-06-04T03:08:40.101Z,99.90
2019-06-04T03:11:12.872Z,99.90
2019-06-04T03:13:41.900Z,99.90
2019-06-04T03:16:13.054Z,99.90
2019-06-04T03:18:42.988Z,99.90
2019-06-04T03:21:14.306Z,99.90
2019-06-04T03:23:44.188Z,99.90
2019-06-04T03:26:13.859Z,99.90
2019-06-04T03:28:43.551Z,99.90
2019-06-04T03:31:15.212Z,99.90
2019-06-04T03:33:56.941Z,99.90
2019-06-04T03:36:16.636Z,99.90
2019-06-04T03:38:46.726Z,99.90
2019-06-04T03:41:17.201Z,99.90
2019-06-04T03:43:47.188Z,99.90
2019-06-04T03:46:18.039Z,99.90
2019-06-04T03:48:47.875Z,99.90
2019-06-04T03:51:18.777Z,99.90
2019-06-04T03:53:48.611Z,99.90
2019-06-04T03:56:19.199Z,99.90
2019-06-04T03:58:49.384Z,99.90
2019-06-04T04:01:20.337Z,99.90
2019-06-04T04:04:04.054Z,99.90
2019-06-04T04:06:22.954Z,99.90
2019-06-04T04:08:53.143Z,99.90
2019-06-04T04:11:22.885Z,99.90
2019-06-04T04:13:52.669Z,99.90
2019-06-04T04:16:22.929Z,99.90
2019-06-04T04:18:52.777Z,99.40
2019-06-04T04:21:25.321Z,94.90
2019-06-04T04:23:55.386Z,89.60
2019-06-04T04:26:25.334Z,82.10
2019-06-04T04:28:55.305Z,76.10
2019-06-04T04:31:26.116Z,70.40
2019-06-04T04:33:55.936Z,66.60
2019-06-04T04:36:25.806Z,64.20
2019-06-04T04:38:55.512Z,62.70
2019-06-04T04:41:25.923Z,59.90
2019-06-04T04:43:55.916Z,59.50
2019-06-04T04:46:26.761Z,59.10
2019-06-04T04:48:56.981Z,62.60
2019-06-04T04:51:27.488Z,65.20
2019-06-04T04:53:57.640Z,70.80
2019-06-04T04:56:27.592Z,77.10
2019-06-04T04:58:57.672Z,83.10
2019-06-04T05:01:27.981Z,87.60
2019-06-04T05:03:58.223Z,91.60
2019-06-04T05:06:29.309Z,92.30
2019-06-04T05:08:59.505Z,92.60
2019-06-04T05:11:31.084Z,92.90
2019-06-04T05:14:02.816Z,94.40
2019-06-04T05:16:34.033Z,95.80
2019-06-04T05:19:06.268Z,96.50
2019-06-04T05:21:36.804Z,97.80
2019-06-04T05:24:06.579Z,97.90
2019-06-04T05:26:36.391Z,98.80
2019-06-04T05:29:06.072Z,98.10
2019-06-04T05:31:35.918Z,98.60
2019-06-04T05:34:05.914Z,99.20
2019-06-04T05:36:37.713Z,99.40
2019-06-04T05:39:10.609Z,99.10
2019-06-04T05:41:40.427Z,99.90
2019-06-04T05:44:10.227Z,99.90
2019-06-04T05:46:39.931Z,99.90
2019-06-04T05:49:09.673Z,99.80
2019-06-04T05:51:44.084Z,99.00
2019-06-04T05:54:13.984Z,99.50
2019-06-04T05:56:43.734Z,99.80
2019-06-04T05:59:13.433Z,99.90
2019-06-04T06:01:43.227Z,99.90
2019-06-04T06:04:12.988Z,99.90
2019-06-04T06:06:42.756Z,99.90
2019-06-04T06:09:12.525Z,99.90
2019-06-04T06:11:42.241Z,99.90
2019-06-04T06:14:15.057Z,99.90
2019-06-04T06:16:44.836Z,99.20
2019-06-04T06:19:14.574Z,99.00
2019-06-04T06:21:44.321Z,99.20
2019-06-04T06:24:14.087Z,98.00
2019-06-04T06:26:43.816Z,98.20
2019-06-04T06:29:13.570Z,97.80
2019-06-04T06:31:43.302Z,97.60
2019-06-04T06:34:13.013Z,97.50
2019-06-04T06:36:42.735Z,97.50
2019-06-04T06:39:12.479Z,97.70
2019-06-04T06:41:42.213Z,97.20
2019-06-04T06:44:11.897Z,97.90
2019-06-04T06:46:42.280Z,96.10
2019-06-04T06:49:11.978Z,95.70
2019-06-04T06:51:41.702Z,96.00
2019-06-04T06:54:11.431Z,95.90
2019-06-04T06:56:41.218Z,95.60
2019-06-04T06:59:10.920Z,97.30
2019-06-04T07:01:40.763Z,96.60
2019-06-04T07:04:10.664Z,96.60
2019-06-04T07:06:42.279Z,96.00
2019-06-04T07:09:12.019Z,95.40
2019-06-04T07:11:44.524Z,94.90
2019-06-04T07:14:14.251Z,95.80
2019-06-04T07:16:43.975Z,96.20
2019-06-04T07:19:13.682Z,95.40
2019-06-04T07:21:43.512Z,95.10
2019-06-04T07:24:13.236Z,95.30
2019-06-04T07:26:42.970Z,96.10
2019-06-04T07:29:12.753Z,96.60
2019-06-04T07:31:42.485Z,95.30
2019-06-04T07:34:12.239Z,96.10
2019-06-04T07:36:41.978Z,94.30
2019-06-04T07:39:11.701Z,93.60
2019-06-04T07:41:42.885Z,93.70
2019-06-04T07:44:27.831Z,93.30
2019-06-04T07:46:57.629Z,92.90
2019-06-04T07:49:27.351Z,92.20
2019-06-04T07:51:57.104Z,92.60
2019-06-04T07:54:26.919Z,91.60
2019-06-04T07:56:56.625Z,93.10
2019-06-04T07:59:26.402Z,92.00
2019-06-04T08:02:07.015Z,92.90
2019-06-04T08:04:27.671Z,91.40
2019-06-04T08:06:58.921Z,92.10
2019-06-04T08:09:28.903Z,92.30
2019-06-04T08:11:58.650Z,91.70
2019-06-04T08:14:28.370Z,91.20
2019-06-04T08:16:58.172Z,92.10
2019-06-04T08:19:27.881Z,92.30
2019-06-04T08:21:58.519Z,92.70
2019-06-04T08:24:28.556Z,92.00
2019-06-04T08:26:58.268Z,91.70
2019-06-04T08:29:27.925Z,90.90
2019-06-04T08:31:57.740Z,89.00
2019-06-04T08:34:27.469Z,90.10
2019-06-04T08:37:07.653Z,87.10
2019-06-04T08:39:28.547Z,88.20
2019-06-04T08:41:58.307Z,89.30
2019-06-04T08:44:28.063Z,86.90
2019-06-04T08:46:57.935Z,84.20
2019-06-04T08:49:27.717Z,85.40
2019-06-04T08:51:57.425Z,83.70
2019-06-04T08:54:27.184Z,81.80
2019-06-04T08:56:58.172Z,78.80
2019-06-04T08:59:30.930Z,80.30
2019-06-04T09:02:01.486Z,78.70
2019-06-04T09:04:33.125Z,76.60
2019-06-04T09:07:04.037Z,79.80
2019-06-04T09:09:36.328Z,76.20
2019-06-04T09:12:06.076Z,77.90
2019-06-04T09:14:37.968Z,75.30
2019-06-04T09:17:08.179Z,72.60
2019-06-04T09:19:39.140Z,73.10
2019-06-04T09:22:08.985Z,73.40
2019-06-04T09:24:44.435Z,74.60
2019-06-04T09:27:10.207Z,74.40
2019-06-04T09:29:41.120Z,73.90
2019-06-04T09:32:11.333Z,73.60
2019-06-04T09:34:43.618Z,74.30
2019-06-04T09:37:13.399Z,74.20
2019-06-04T09:39:46.783Z,73.60
2019-06-04T09:42:14.476Z,74.20
2019-06-04T09:44:44.393Z,70.60
2019-06-04T09:47:14.194Z,69.50
2019-06-04T09:49:47.021Z,72.70
2019-06-04T09:52:15.394Z,69.60
2019-06-04T09:54:46.729Z,69.40
2019-06-04T09:57:16.575Z,72.40
2019-06-04T09:59:46.768Z,68.50
2019-06-04T10:02:17.748Z,72.10
2019-06-04T10:04:49.572Z,70.70
2019-06-04T10:07:22.798Z,70.40
2019-06-04T10:09:52.561Z,70.90
2019-06-04T10:12:22.359Z,69.20
2019-06-04T10:14:52.994Z,71.50
2019-06-04T10:17:22.962Z,67.70
2019-06-04T10:19:53.818Z,68.30
2019-06-04T10:22:23.929Z,68.90
2019-06-04T10:24:57.393Z,69.10
2019-06-04T10:27:24.974Z,65.90
2019-06-04T10:29:54.776Z,66.20
2019-06-04T10:32:24.500Z,66.00
2019-06-04T10:34:58.263Z,65.70
2019-06-04T10:37:25.693Z,67.00
2019-06-04T10:39:55.968Z,69.50
2019-06-04T10:42:26.070Z,69.10
2019-06-04T10:45:05.366Z,71.20
2019-06-04T10:47:27.212Z,69.60
2019-06-04T10:49:56.939Z,68.10
2019-06-04T10:52:26.637Z,68.10
2019-06-04T10:54:56.367Z,66.70
2019-06-04T10:57:26.090Z,68.00
2019-06-04T10:59:57.454Z,68.10
2019-06-04T11:02:27.277Z,67.50
2019-06-04T11:04:57.128Z,69.00
2019-06-04T11:07:26.898Z,67.50
2019-06-04T11:09:56.567Z,65.40
2019-06-04T11:12:26.272Z,66.50
2019-06-04T11:14:56.189Z,69.60
2019-06-04T11:17:25.939Z,70.00
2019-06-04T11:19:55.666Z,66.00
2019-06-04T11:22:25.407Z,66.90
2019-06-04T11:24:55.115Z,68.40
2019-06-04T11:27:24.835Z,65.30
2019-06-04T11:29:55.244Z,68.50
2019-06-04T11:32:25.219Z,64.00
2019-06-04T11:34:55.757Z,67.00
2019-06-04T11:37:25.715Z,69.80
2019-06-04T11:39:56.413Z,67.70
2019-06-04T11:42:26.242Z,64.00
2019-06-04T11:45:09.166Z,65.80
2019-06-04T11:47:27.857Z,68.20
2019-06-04T11:49:59.359Z,67.10
2019-06-04T11:52:29.576Z,65.80
2019-06-04T11:55:00.022Z,65.30
2019-06-04T11:57:30.953Z,65.50
2019-06-04T12:00:03.030Z,63.50
2019-06-04T12:02:32.993Z,61.70
2019-06-04T12:05:05.670Z,62.60
2019-06-04T12:07:35.040Z,60.80
2019-06-04T12:10:05.308Z,60.50
2019-06-04T12:12:44.262Z,61.70
2019-06-04T12:15:07.394Z,61.80
2019-06-04T12:17:37.227Z,60.50
2019-06-04T12:20:07.175Z,63.70
2019-06-04T12:23:23.339Z,62.50
2019-06-04T12:25:08.441Z,63.10
2019-06-04T12:27:38.139Z,59.20
2019-06-04T12:30:08.904Z,59.10
2019-06-04T12:32:38.613Z,58.70
2019-06-04T12:35:11.154Z,62.50
2019-06-04T12:37:39.939Z,61.70
2019-06-04T12:40:09.857Z,60.80
2019-06-04T12:42:39.660Z,59.10
2019-06-04T12:45:10.342Z,60.90
2019-06-04T12:47:40.090Z,63.30
2019-06-04T12:50:09.900Z,63.00
2019-06-04T12:52:39.812Z,62.20
2019-06-04T12:55:10.140Z,64.80
2019-06-04T12:57:40.997Z,63.10
2019-06-04T13:00:11.445Z,60.00
2019-06-04T13:02:43.435Z,60.90
2019-06-04T13:05:14.144Z,61.40
2019-06-04T13:07:45.530Z,59.20
2019-06-04T13:10:26.748Z,59.50
2019-06-04T13:12:47.896Z,59.90
2019-06-04T13:15:18.615Z,60.70
2019-06-04T13:17:48.421Z,59.40
2019-06-04T13:20:29.917Z,58.90
2019-06-04T13:22:56.587Z,60.30
2019-06-04T13:25:24.414Z,59.40
2019-06-04T13:27:55.805Z,58.70
2019-06-04T13:30:45.182Z,60.90
2019-06-04T13:33:15.077Z,59.30
2019-06-04T13:35:44.873Z,62.00
2019-06-04T13:38:14.717Z,59.40
2019-06-04T13:40:44.544Z,61.10
2019-06-04T13:43:14.332Z,59.70
2019-06-04T13:45:44.131Z,60.00
2019-06-04T13:48:13.802Z,61.90
2019-06-04T13:50:43.708Z,59.30
2019-06-04T13:53:22.805Z,60.40
2019-06-04T13:55:48.049Z,59.60
2019-06-04T13:58:19.961Z,61.80
2019-06-04T14:00:49.341Z,61.80
2019-06-04T14:03:19.163Z,63.30
2019-06-04T14:05:48.942Z,62.80
2019-06-04T14:08:18.627Z,61.00
2019-06-04T14:10:51.038Z,60.80
2019-06-04T14:13:20.005Z,58.70
2019-06-04T14:15:49.792Z,58.40
2019-06-04T14:18:19.535Z,58.20
2019-06-04T14:20:49.279Z,57.40
2019-06-04T14:23:21.903Z,58.80
2019-06-04T14:26:26.248Z,56.40
2019-06-04T14:28:56.129Z,57.10
2019-06-04T14:31:25.865Z,56.20
2019-06-04T14:33:56.164Z,56.10
2019-06-04T14:36:25.864Z,57.60
2019-06-04T14:38:57.767Z,55.80
2019-06-04T14:41:27.571Z,54.50
2019-06-04T14:43:57.466Z,54.80
2019-06-04T14:46:27.175Z,56.70
2019-06-04T14:48:56.849Z,56.80
2019-06-04T14:51:26.593Z,57.10
2019-06-04T14:53:56.431Z,56.70
2019-06-04T14:56:26.149Z,57.70
2019-06-04T14:58:55.921Z,56.20
2019-06-04T15:01:25.671Z,54.60
2019-06-04T15:03:55.426Z,54.80
2019-06-04T15:06:25.132Z,56.00
2019-06-04T15:08:54.835Z,55.20
2019-06-04T15:11:40.041Z,54.50
2019-06-04T15:13:57.011Z,54.30
2019-06-04T15:16:26.760Z,54.10
2019-06-04T15:18:56.535Z,54.20
2019-06-04T15:21:26.311Z,54.50
2019-06-04T15:23:59.282Z,53.50
2019-06-04T15:26:28.980Z,53.50
2019-06-04T15:28:58.714Z,53.30
2019-06-04T15:31:29.239Z,53.50
2019-06-04T15:33:59.082Z,55.40
2019-06-04T15:36:29.153Z,55.30
2019-06-04T15:38:58.881Z,54.50
2019-06-04T15:41:44.936Z,52.80
2019-06-04T15:44:00.647Z,54.30
2019-06-04T15:46:30.390Z,53.90
2019-06-04T15:49:00.700Z,53.30
2019-06-04T15:51:30.655Z,54.00
2019-06-04T15:54:00.442Z,53.50
2019-06-04T15:56:30.231Z,52.20
2019-06-04T15:59:02.423Z,52.40
2019-06-04T16:01:32.131Z,53.50
2019-06-04T16:04:01.927Z,54.20
2019-06-04T16:06:31.717Z,54.60
2019-06-04T16:09:01.508Z,55.40
2019-06-04T16:11:31.327Z,57.50
2019-06-04T16:14:01.075Z,57.30
2019-06-04T16:16:30.813Z,58.80
2019-06-04T16:19:01.668Z,58.30
2019-06-04T16:21:34.816Z,59.50
2019-06-04T16:24:03.402Z,60.60
2019-06-04T16:26:33.199Z,61.50
2019-06-04T16:29:02.895Z,62.90
2019-06-04T16:31:32.600Z,59.80
2019-06-04T16:34:02.320Z,59.80
2019-06-04T16:36:35.028Z,59.70
2019-06-04T16:39:06.249Z,58.80
2019-06-04T16:41:35.875Z,59.10
2019-06-04T16:44:09.224Z,59.10
2019-06-04T16:46:45.538Z,59.30
2019-06-04T16:49:15.367Z,59.10
2019-06-04T16:51:45.137Z,59.30
2019-06-04T16:54:15.013Z,60.50
2019-06-04T16:56:44.796Z,60.80
2019-06-04T16:59:14.764Z,62.40
2019-06-04T17:01:44.527Z,62.20
2019-06-04T17:04:14.259Z,63.00
2019-06-04T17:06:43.973Z,63.20
2019-06-04T17:09:13.750Z,64.20
2019-06-04T17:11:43.752Z,65.40
2019-06-04T17:14:14.364Z,66.70
2019-06-04T17:16:45.311Z,68.00
2019-06-04T17:19:15.024Z,68.60
2019-06-04T17:21:44.770Z,69.10
2019-06-04T17:24:14.580Z,68.30
2019-06-04T17:26:44.792Z,69.50
2019-06-04T17:29:14.560Z,68.70
2019-06-04T17:31:44.295Z,69.10
2019-06-04T17:34:14.002Z,70.40
2019-06-04T17:36:43.761Z,72.00
2019-06-04T17:39:13.587Z,71.10
2019-06-04T17:41:43.269Z,72.20
2019-06-04T17:44:13.007Z,72.10
2019-06-04T17:46:42.742Z,72.30
2019-06-04T17:49:12.602Z,72.90
2019-06-04T17:51:42.458Z,73.90
2019-06-04T17:54:12.145Z,73.10
2019-06-04T17:56:41.921Z,73.60
2019-06-04T17:59:11.629Z,74.40
2019-06-04T18:01:41.330Z,74.70
2019-06-04T18:04:11.057Z,75.20
2019-06-04T18:06:40.785Z,75.70
2019-06-04T18:09:10.544Z,77.60
2019-06-04T18:11:40.258Z,77.20
2019-06-04T18:14:10.007Z,78.00
2019-06-04T18:16:39.990Z,78.70
2019-06-04T18:19:10.529Z,79.10
2019-06-04T18:21:40.472Z,79.50
2019-06-04T18:24:10.293Z,81.10
2019-06-04T18:26:40.610Z,81.00
2019-06-04T18:29:10.737Z,81.60
2019-06-04T18:31:40.445Z,83.60
2019-06-04T18:34:10.226Z,84.50
2019-06-04T18:36:40.592Z,86.20
2019-06-04T18:39:10.407Z,86.20
2019-06-04T18:41:40.193Z,87.30
2019-06-04T18:44:10.093Z,88.90
2019-06-04T18:46:39.801Z,90.10
2019-06-04T18:49:10.112Z,90.80
2019-06-04T18:51:39.983Z,91.70
2019-06-04T18:54:09.887Z,92.00
2019-06-04T18:56:41.352Z,92.80
2019-06-04T18:59:11.089Z,93.70
2019-06-04T19:01:40.971Z,94.90
2019-06-04T19:04:11.088Z,96.10
2019-06-04T19:06:41.279Z,97.10
2019-06-04T19:09:11.638Z,97.90
2019-06-04T19:11:41.726Z,99.20
2019-06-04T19:14:11.929Z,99.60
2019-06-04T19:16:41.767Z,99.90
2019-06-04T19:19:27.821Z,99.90
2019-06-04T19:21:47.062Z,99.90
2019-06-04T19:24:14.344Z,99.90
2019-06-04T19:26:45.263Z,99.90
2019-06-04T19:29:15.036Z,99.90
2019-06-04T19:31:47.221Z,99.90
2019-06-04T19:34:17.006Z,99.90
2019-06-04T19:36:46.716Z,99.90
2019-06-04T19:39:18.701Z,99.90
2019-06-04T19:41:48.423Z,99.90
2019-06-04T19:44:21.726Z,99.90
2019-06-04T19:46:52.177Z,99.90
2019-06-04T19:49:21.952Z,99.90
2019-06-04T19:51:51.696Z,99.90
2019-06-04T19:54:23.134Z,99.90
2019-06-04T19:56:52.928Z,99.90
2019-06-04T19:59:22.676Z,99.90
2019-06-04T20:01:52.481Z,99.90
2019-06-04T20:04:22.184Z,99.90
2019-06-04T20:06:51.929Z,99.90
2019-06-04T20:09:21.918Z,99.90
2019-06-04T20:11:51.748Z,99.90
2019-06-04T20:14:40.287Z,99.90
2019-06-04T20:16:53.060Z,99.90
2019-06-04T20:19:22.793Z,99.90
2019-06-04T20:21:52.548Z,99.90
2019-06-04T20:24:22.413Z,99.90
2019-06-04T20:26:53.920Z,99.90
2019-06-04T20:29:23.755Z,99.90
2019-06-04T20:31:53.554Z,99.90
2019-06-04T20:34:23.528Z,99.90
2019-06-04T20:36:53.254Z,99.90
2019-06-04T20:39:23.014Z,99.90
2019-06-04T20:41:52.915Z,99.90
2019-06-04T20:44:23.882Z,99.90
2019-06-04T20:46:53.729Z,99.90
2019-06-04T20:49:27.990Z,99.90
2019-06-04T20:51:56.051Z,99.90
2019-06-04T20:54:25.968Z,99.90
2019-06-04T20:57:15.855Z,99.90
2019-06-04T20:59:27.445Z,99.90
2019-06-04T21:01:57.276Z,99.90
2019-06-04T21:04:29.827Z,99.90
2019-06-04T21:06:59.864Z,99.90
2019-06-04T21:09:29.691Z,99.90
2019-06-04T21:11:59.465Z,99.90
2019-06-04T21:14:29.219Z,99.90
2019-06-04T21:16:58.976Z,99.90
2019-06-04T21:19:28.825Z,99.90
2019-06-04T21:21:58.569Z,99.90
2019-06-04T21:24:28.292Z,99.90
2019-06-04T21:26:58.064Z,99.90
2019-06-04T21:29:27.791Z,99.90
2019-06-04T21:31:57.504Z,99.90
2019-06-04T21:34:27.279Z,99.90
2019-06-04T21:36:57.029Z,99.90
2019-06-04T21:39:26.854Z,99.90
2019-06-04T21:41:56.607Z,99.90
2019-06-04T21:44:26.356Z,99.90
2019-06-04T21:47:01.545Z,99.90
2019-06-04T21:49:27.448Z,99.90
2019-06-04T21:51:57.138Z,99.90
2019-06-04T21:54:28.606Z,99.90
2019-06-04T21:56:58.654Z,99.90
2019-06-04T21:59:28.403Z,99.90
2019-06-04T22:01:58.247Z,99.90
2019-06-04T22:04:29.223Z,99.90
2019-06-04T22:07:00.909Z,99.90
2019-06-04T22:09:33.239Z,99.90
2019-06-04T22:12:02.930Z,99.90
2019-06-04T22:14:32.740Z,99.90
2019-06-04T22:17:02.425Z,99.90
2019-06-04T22:19:32.177Z,99.90
2019-06-04T22:22:01.940Z,99.90
2019-06-04T22:24:31.640Z,99.90
2019-06-04T22:27:01.374Z,99.90
2019-06-04T22:29:31.127Z,99.90
2019-06-04T22:32:01.137Z,99.90
2019-06-04T22:34:31.353Z,99.90
2019-06-04T22:37:01.090Z,99.90
2019-06-04T22:39:30.780Z,99.90
2019-06-04T22:42:00.713Z,99.90
2019-06-04T22:44:30.406Z,99.90
2019-06-04T22:47:00.269Z,99.90
2019-06-04T22:49:30.437Z,99.90
2019-06-04T22:52:01.685Z,99.90
2019-06-04T22:54:31.546Z,99.90
2019-06-04T22:57:01.385Z,99.90
2019-06-04T22:59:31.095Z,99.90
2019-06-04T23:02:02.612Z,99.90
2019-06-04T23:04:32.164Z,99.90
2019-06-04T23:07:02.542Z,99.90
2019-06-04T23:09:32.767Z,99.90
2019-06-04T23:12:03.683Z,99.90
2019-06-04T23:14:33.667Z,99.90
2019-06-04T23:17:04.505Z,99.90
2019-06-04T23:19:34.599Z,99.90
2019-06-04T23:22:04.841Z,99.90
2019-06-04T23:24:34.541Z,99.90
2019-06-04T23:27:04.429Z,99.90
2019-06-04T23:29:34.200Z,99.90
2019-06-04T23:32:08.696Z,99.90
2019-06-04T23:34:35.325Z,99.90
2019-06-04T23:37:05.271Z,99.90
2019-06-04T23:39:35.079Z,99.90
2019-06-04T23:42:06.015Z,99.90
2019-06-04T23:44:35.907Z,99.90
2019-06-04T23:47:08.801Z,99.90
2019-06-04T23:49:37.070Z,99.90
2019-06-04T23:52:06.770Z,99.90
2019-06-04T23:54:36.486Z,99.90
2019-06-04T23:57:06.249Z,99.90
2019-06-04T23:59:35.963Z,99.90
